createdAt,value
2017-12-30T00:01:36.909Z,5.70
2017-12-30T00:04:02.692Z,13.80
2017-12-30T00:06:28.462Z,8.13
2017-12-30T00:08:54.606Z,12.20
2017-12-30T00:11:20.400Z,5.03
2017-12-30T00:13:46.202Z,5.67
2017-12-30T00:16:12.369Z,6.73
2017-12-30T00:18:38.154Z,7.10
2017-12-30T00:21:03.942Z,7.53
2017-12-30T00:23:29.767Z,8.23
2017-12-30T00:25:55.564Z,6.40
2017-12-30T00:28:21.363Z,6.30
2017-12-30T00:30:47.183Z,11.10
2017-12-30T00:33:12.969Z,5.40
2017-12-30T00:35:38.753Z,4.50
2017-12-30T00:38:04.966Z,11.40
2017-12-30T00:40:30.745Z,10.85
2017-12-30T00:42:56.526Z,4.80
2017-12-30T00:45:22.326Z,6.97
2017-12-30T00:47:48.127Z,6.43
2017-12-30T00:50:13.919Z,5.70
2017-12-30T00:52:39.727Z,5.70
2017-12-30T00:55:05.505Z,6.33
2017-12-30T00:57:31.285Z,5.30
2017-12-30T00:59:57.070Z,4.97
2017-12-30T01:02:22.879Z,5.43
2017-12-30T01:04:48.700Z,5.77
2017-12-30T01:07:14.496Z,5.50
2017-12-30T01:09:40.279Z,5.07
2017-12-30T01:12:06.089Z,4.67
2017-12-30T01:14:31.878Z,5.57
2017-12-30T01:16:57.663Z,7.27
2017-12-30T01:19:23.479Z,5.70
2017-12-30T01:21:49.289Z,5.27
2017-12-30T01:24:15.076Z,5.40
2017-12-30T01:26:40.904Z,6.47
2017-12-30T01:29:06.699Z,10.70
2017-12-30T01:31:32.490Z,8.30
2017-12-30T01:33:58.317Z,4.20
2017-12-30T01:36:24.106Z,6.77
2017-12-30T01:38:49.899Z,9.10
2017-12-30T01:41:15.706Z,7.93
2017-12-30T01:43:41.489Z,6.77
2017-12-30T01:46:07.278Z,7.40
2017-12-30T01:48:33.128Z,7.60
2017-12-30T01:50:59.808Z,8.10
2017-12-30T01:53:25.594Z,4.00
2017-12-30T01:55:51.391Z,7.60
2017-12-30T01:58:17.179Z,7.80
2017-12-30T02:00:42.985Z,6.33
2017-12-30T02:03:08.767Z,8.87
2017-12-30T02:05:34.567Z,9.20
2017-12-30T02:08:03.563Z,7.60
2017-12-30T02:10:29.347Z,8.85
2017-12-30T02:12:55.133Z,7.60
2017-12-30T02:15:20.932Z,7.57
2017-12-30T02:17:46.701Z,4.60
2017-12-30T02:20:12.506Z,8.67
2017-12-30T02:22:38.303Z,9.27
2017-12-30T02:25:04.090Z,8.20
2017-12-30T02:27:29.874Z,7.33
2017-12-30T02:29:55.658Z,9.47
2017-12-30T02:32:21.446Z,10.03
2017-12-30T02:34:47.242Z,12.53
2017-12-30T02:37:13.030Z,12.17
2017-12-30T02:39:38.837Z,6.50
2017-12-30T02:42:04.655Z,8.13
2017-12-30T02:44:30.442Z,11.60
2017-12-30T02:46:56.284Z,12.63
2017-12-30T02:49:22.058Z,12.10
2017-12-30T02:51:47.909Z,6.37
2017-12-30T02:54:13.686Z,11.27
2017-12-30T02:56:39.468Z,14.43
2017-12-30T02:59:05.278Z,12.13
2017-12-30T03:01:31.047Z,10.13
2017-12-30T03:03:56.843Z,12.50
2017-12-30T03:06:22.679Z,8.47
2017-12-30T03:08:48.470Z,12.37
2017-12-30T03:11:14.242Z,21.93
2017-12-30T03:13:40.278Z,7.07
2017-12-30T03:16:06.066Z,13.45
2017-12-30T03:18:31.900Z,9.53
2017-12-30T03:20:57.718Z,12.57
2017-12-30T03:23:23.552Z,8.23
2017-12-30T03:25:49.394Z,7.83
2017-12-30T03:28:15.589Z,9.80
2017-12-30T03:30:41.375Z,6.00
2017-12-30T03:33:07.158Z,6.93
2017-12-30T03:35:33.268Z,11.30
2017-12-30T03:37:59.059Z,11.40
2017-12-30T03:40:24.862Z,7.83
2017-12-30T03:42:50.674Z,13.13
2017-12-30T03:45:16.454Z,10.17
2017-12-30T03:47:42.230Z,11.13
2017-12-30T03:50:08.884Z,10.40
2017-12-30T03:52:34.666Z,7.37
2017-12-30T03:55:00.519Z,10.30
2017-12-30T03:57:26.354Z,10.33
2017-12-30T03:59:52.138Z,9.70
2017-12-30T04:02:17.909Z,14.00
2017-12-30T04:04:43.702Z,9.47
2017-12-30T04:07:09.479Z,11.20
2017-12-30T04:09:35.297Z,12.20
2017-12-30T04:12:01.080Z,13.70
2017-12-30T04:14:26.863Z,13.23
2017-12-30T04:16:52.675Z,12.63
2017-12-30T04:19:18.464Z,10.97
2017-12-30T04:21:44.260Z,10.70
2017-12-30T04:24:10.071Z,10.33
2017-12-30T04:26:35.850Z,12.60
2017-12-30T04:29:01.643Z,14.20
2017-12-30T04:31:27.588Z,9.37
2017-12-30T04:33:53.370Z,12.27
2017-12-30T04:36:19.162Z,11.07
2017-12-30T04:38:44.949Z,10.00
2017-12-30T04:41:10.759Z,11.07
2017-12-30T04:43:36.539Z,9.53
2017-12-30T04:46:02.346Z,8.73
2017-12-30T04:48:28.126Z,9.10
2017-12-30T04:50:53.918Z,10.43
2017-12-30T04:53:19.712Z,9.23
2017-12-30T04:55:45.662Z,10.40
2017-12-30T04:58:11.438Z,11.90
2017-12-30T05:00:37.293Z,10.63
2017-12-30T05:03:03.074Z,7.83
2017-12-30T05:05:28.865Z,8.33
2017-12-30T05:07:54.710Z,11.20
2017-12-30T05:10:20.491Z,9.83
2017-12-30T05:12:46.284Z,7.40
2017-12-30T05:15:12.095Z,7.80
2017-12-30T05:17:37.880Z,5.20
2017-12-30T05:20:03.662Z,9.40
2017-12-30T05:22:29.454Z,5.10
2017-12-30T05:24:55.232Z,11.27
2017-12-30T05:27:21.026Z,8.40
2017-12-30T05:29:46.828Z,7.37
2017-12-30T05:32:12.836Z,9.97
2017-12-30T05:34:38.627Z,4.37
2017-12-30T05:37:04.454Z,7.87
2017-12-30T05:39:30.236Z,9.10
2017-12-30T05:41:56.034Z,10.13
2017-12-30T05:44:28.878Z,7.70
2017-12-30T05:46:54.664Z,8.70
2017-12-30T05:49:20.455Z,11.60
2017-12-30T05:51:46.248Z,12.30
2017-12-30T05:54:12.030Z,8.73
2017-12-30T05:56:37.845Z,11.20
2017-12-30T05:59:03.626Z,9.50
2017-12-30T06:01:29.419Z,8.70
2017-12-30T06:03:55.442Z,11.47
2017-12-30T06:06:21.227Z,9.98
2017-12-30T06:08:47.031Z,11.77
2017-12-30T06:11:12.820Z,10.83
2017-12-30T06:13:38.813Z,8.90
2017-12-30T06:16:04.598Z,12.20
2017-12-30T06:18:30.387Z,8.00
2017-12-30T06:20:56.241Z,10.40
2017-12-30T06:23:22.025Z,9.80
2017-12-30T06:25:47.814Z,10.30
2017-12-30T06:28:13.586Z,8.60
2017-12-30T06:30:39.357Z,7.60
2017-12-30T06:33:05.463Z,9.50
2017-12-30T06:35:31.250Z,8.73
2017-12-30T06:37:57.042Z,11.03
2017-12-30T06:40:22.829Z,12.73
2017-12-30T06:42:48.606Z,9.33
2017-12-30T06:45:14.413Z,8.27
2017-12-30T06:47:40.218Z,13.03
2017-12-30T06:50:06.009Z,8.60
2017-12-30T06:52:31.804Z,6.73
2017-12-30T06:54:57.613Z,8.37
2017-12-30T06:57:23.412Z,12.27
2017-12-30T06:59:49.197Z,10.37
2017-12-30T07:02:15.011Z,12.57
2017-12-30T07:04:40.786Z,4.97
2017-12-30T07:07:06.575Z,7.27
2017-12-30T07:09:32.356Z,7.90
2017-12-30T07:11:58.456Z,13.17
2017-12-30T07:14:24.243Z,10.90
2017-12-30T07:16:50.045Z,7.80
2017-12-30T07:19:15.845Z,7.53
2017-12-30T07:21:41.640Z,12.83
2017-12-30T07:24:07.420Z,9.33
2017-12-30T07:26:33.234Z,8.50
2017-12-30T07:28:59.010Z,11.07
2017-12-30T07:31:24.798Z,8.10
2017-12-30T07:33:50.768Z,6.60
2017-12-30T07:36:16.506Z,5.90
2017-12-30T07:38:42.292Z,8.03
2017-12-30T07:41:08.086Z,9.00
2017-12-30T07:43:40.728Z,8.63
2017-12-30T07:46:06.530Z,8.73
2017-12-30T07:48:32.314Z,6.53
2017-12-30T07:50:58.709Z,6.47
2017-12-30T07:53:24.517Z,5.45
2017-12-30T07:55:50.296Z,7.27
2017-12-30T07:58:16.109Z,6.40
2017-12-30T08:00:41.962Z,4.87
2017-12-30T08:03:07.766Z,4.00
2017-12-30T08:05:33.550Z,8.23
2017-12-30T08:07:59.351Z,6.30
2017-12-30T08:10:25.147Z,8.33
2017-12-30T08:12:50.962Z,5.70
2017-12-30T08:15:16.739Z,9.27
2017-12-30T08:17:42.921Z,7.97
2017-12-30T08:20:08.707Z,7.35
2017-12-30T08:22:34.492Z,5.70
2017-12-30T08:25:00.271Z,9.60
2017-12-30T08:27:26.411Z,7.23
2017-12-30T08:29:52.271Z,8.85
2017-12-30T08:32:18.065Z,6.83
2017-12-30T08:34:43.862Z,8.50
2017-12-30T08:37:09.643Z,5.97
2017-12-30T08:39:35.436Z,8.13
2017-12-30T08:42:01.243Z,4.47
2017-12-30T08:44:27.022Z,10.53
2017-12-30T08:46:59.821Z,5.30
2017-12-30T08:49:25.627Z,4.55
2017-12-30T08:51:51.455Z,7.87
2017-12-30T08:54:17.238Z,5.83
2017-12-30T08:56:43.015Z,3.90
2017-12-30T08:59:08.814Z,5.07
2017-12-30T09:01:35.015Z,3.80
2017-12-30T09:04:00.835Z,3.33
2017-12-30T09:06:26.602Z,3.47
2017-12-30T09:08:52.391Z,3.57
2017-12-30T09:11:18.186Z,4.47
2017-12-30T09:13:43.982Z,6.40
2017-12-30T09:16:09.771Z,4.30
2017-12-30T09:18:35.578Z,4.47
2017-12-30T09:21:01.364Z,4.20
2017-12-30T09:23:27.147Z,2.80
2017-12-30T09:25:52.946Z,4.27
2017-12-30T09:28:18.731Z,2.97
2017-12-30T09:30:44.503Z,4.87
2017-12-30T09:33:10.498Z,2.67
2017-12-30T09:35:36.294Z,4.57
2017-12-30T09:38:02.083Z,4.53
2017-12-30T09:40:27.891Z,3.17
2017-12-30T09:42:53.674Z,3.17
2017-12-30T09:45:19.454Z,5.17
2017-12-30T09:47:45.250Z,3.20
2017-12-30T09:50:11.023Z,2.53
2017-12-30T09:52:36.795Z,2.50
2017-12-30T09:55:02.831Z,2.90
2017-12-30T09:57:28.615Z,3.75
2017-12-30T09:59:54.396Z,3.40
2017-12-30T10:02:20.678Z,2.20
2017-12-30T10:04:46.455Z,3.45
2017-12-30T10:07:12.235Z,3.90
2017-12-30T10:09:38.047Z,4.30
2017-12-30T10:12:03.827Z,3.10
2017-12-30T10:14:29.607Z,3.53
2017-12-30T10:16:55.403Z,4.80
2017-12-30T10:19:21.174Z,3.37
2017-12-30T10:21:46.978Z,3.73
2017-12-30T10:24:12.763Z,3.37
2017-12-30T10:26:38.551Z,3.97
2017-12-30T10:29:04.346Z,3.10
2017-12-30T10:31:30.147Z,4.20
2017-12-30T10:33:55.940Z,3.63
2017-12-30T10:36:21.760Z,4.50
2017-12-30T10:38:47.539Z,3.17
2017-12-30T10:41:13.323Z,3.50
2017-12-30T10:43:39.418Z,2.63
2017-12-30T10:46:05.204Z,3.50
2017-12-30T10:48:30.991Z,3.80
2017-12-30T10:50:57.260Z,4.97
2017-12-30T10:53:23.043Z,5.00
2017-12-30T10:55:48.831Z,4.17
2017-12-30T10:58:14.621Z,3.20
2017-12-30T11:00:46.411Z,3.77
2017-12-30T11:03:12.200Z,6.97
2017-12-30T11:05:38.030Z,3.40
2017-12-30T11:08:03.823Z,4.17
2017-12-30T11:10:29.597Z,2.10
2017-12-30T11:12:55.384Z,2.53
2017-12-30T11:15:21.174Z,3.20
2017-12-30T11:17:46.954Z,4.67
2017-12-30T11:20:12.783Z,3.50
2017-12-30T11:22:38.567Z,2.13
2017-12-30T11:25:04.359Z,2.33
2017-12-30T11:27:30.986Z,4.00
2017-12-30T11:29:56.784Z,3.53
2017-12-30T11:32:22.568Z,2.70
2017-12-30T11:34:48.553Z,4.00
2017-12-30T11:37:14.331Z,3.53
2017-12-30T11:39:40.139Z,2.87
2017-12-30T11:42:05.931Z,4.17
2017-12-30T11:44:31.718Z,1.77
2017-12-30T11:46:57.494Z,2.40
2017-12-30T11:49:23.308Z,2.90
2017-12-30T11:51:49.115Z,2.37
2017-12-30T11:54:14.895Z,14.73
2017-12-30T11:56:40.788Z,1.90
2017-12-30T11:59:06.608Z,5.03
2017-12-30T12:01:32.407Z,2.10
2017-12-30T12:03:58.201Z,3.27
2017-12-30T12:06:24.140Z,3.30
2017-12-30T12:08:49.959Z,9.47
2017-12-30T12:11:15.783Z,4.00
2017-12-30T12:13:41.571Z,8.80
2017-12-30T12:16:07.382Z,2.97
2017-12-30T12:18:33.178Z,5.23
2017-12-30T12:21:00.248Z,3.43
2017-12-30T12:23:26.038Z,3.53
2017-12-30T12:25:51.816Z,8.50
2017-12-30T12:28:17.629Z,7.93
2017-12-30T12:30:43.450Z,8.53
2017-12-30T12:33:09.250Z,7.80
2017-12-30T12:35:35.050Z,4.47
2017-12-30T12:38:00.844Z,5.70
2017-12-30T12:40:26.627Z,4.40
2017-12-30T12:42:52.426Z,3.40
2017-12-30T12:45:18.227Z,4.33
2017-12-30T12:47:44.061Z,3.83
2017-12-30T12:50:09.858Z,3.90
2017-12-30T12:52:35.640Z,5.37
2017-12-30T12:55:01.432Z,4.33
2017-12-30T12:57:27.326Z,3.53
2017-12-30T12:59:53.115Z,3.87
2017-12-30T13:02:18.910Z,4.07
2017-12-30T13:04:44.710Z,5.50
2017-12-30T13:07:10.500Z,4.83
2017-12-30T13:09:36.410Z,6.50
2017-12-30T13:12:02.227Z,4.20
2017-12-30T13:14:28.002Z,2.83
2017-12-30T13:16:54.015Z,3.90
2017-12-30T13:19:19.814Z,3.85
2017-12-30T13:21:45.599Z,7.03
2017-12-30T13:24:11.395Z,4.00
2017-12-30T13:26:37.385Z,4.37
2017-12-30T13:29:03.158Z,3.50
2017-12-30T13:31:28.954Z,3.10
2017-12-30T13:33:54.864Z,3.30
2017-12-30T13:36:20.907Z,2.57
2017-12-30T13:38:46.711Z,2.58
2017-12-30T13:41:12.522Z,2.77
2017-12-30T13:43:38.460Z,2.37
2017-12-30T13:46:04.292Z,2.80
2017-12-30T13:48:30.134Z,2.17
2017-12-30T13:50:55.936Z,3.73
2017-12-30T13:53:21.726Z,2.50
2017-12-30T13:55:48.571Z,2.30
2017-12-30T13:58:14.370Z,2.25
2017-12-30T14:00:40.155Z,3.30
2017-12-30T14:03:05.947Z,1.70
2017-12-30T14:05:32.658Z,1.20
2017-12-30T14:07:58.478Z,1.27
2017-12-30T14:10:24.271Z,2.30
2017-12-30T14:12:50.095Z,2.20
2017-12-30T14:15:15.875Z,2.50
2017-12-30T14:17:41.655Z,2.77
2017-12-30T14:20:07.448Z,3.10
2017-12-30T14:22:33.226Z,18.17
2017-12-30T14:24:59.035Z,5.13
2017-12-30T14:27:24.837Z,3.37
2017-12-30T14:29:50.618Z,12.90
2017-12-30T14:32:16.417Z,28.57
2017-12-30T14:34:42.373Z,7.10
2017-12-30T14:37:08.163Z,1.70
2017-12-30T14:39:33.955Z,8.40
2017-12-30T14:41:59.757Z,3.07
2017-12-30T14:44:25.541Z,14.00
2017-12-30T14:46:51.322Z,6.20
2017-12-30T14:49:17.590Z,7.43
2017-12-30T14:51:43.433Z,9.77
2017-12-30T14:54:09.263Z,8.17
2017-12-30T14:56:35.011Z,5.50
2017-12-30T14:59:00.794Z,3.27
2017-12-30T15:01:26.773Z,2.80
2017-12-30T15:03:52.664Z,2.33
2017-12-30T15:06:18.503Z,2.90
2017-12-30T15:08:44.862Z,2.70
2017-12-30T15:11:10.979Z,4.57
2017-12-30T15:13:36.810Z,4.95
2017-12-30T15:16:02.614Z,2.60
2017-12-30T15:18:28.399Z,3.50
2017-12-30T15:20:54.200Z,12.67
2017-12-30T15:23:20.000Z,5.40
2017-12-30T15:25:45.803Z,3.80
2017-12-30T15:28:11.587Z,4.80
2017-12-30T15:30:37.392Z,14.53
2017-12-30T15:33:03.191Z,5.10
2017-12-30T15:35:28.978Z,5.73
2017-12-30T15:37:55.080Z,22.60
2017-12-30T15:40:21.113Z,6.10
2017-12-30T15:42:46.894Z,7.65
2017-12-30T15:45:12.715Z,7.40
2017-12-30T15:47:38.622Z,10.33
2017-12-30T15:50:04.482Z,6.83
2017-12-30T15:52:30.374Z,6.33
2017-12-30T15:54:56.254Z,5.57
2017-12-30T15:57:22.031Z,6.67
2017-12-30T15:59:47.821Z,7.77
2017-12-30T16:02:13.806Z,9.00
2017-12-30T16:04:39.583Z,29.07
2017-12-30T16:07:06.183Z,8.35
2017-12-30T16:09:32.242Z,7.93
2017-12-30T16:11:58.040Z,4.97
2017-12-30T16:14:23.828Z,6.63
2017-12-30T16:16:49.987Z,19.20
2017-12-30T16:19:15.903Z,8.10
2017-12-30T16:21:41.684Z,6.73
2017-12-30T16:24:07.495Z,5.20
2017-12-30T16:26:33.288Z,7.80
2017-12-30T16:28:59.074Z,5.00
2017-12-30T16:31:24.864Z,6.10
2017-12-30T16:33:51.050Z,11.13
2017-12-30T16:36:16.829Z,5.90
2017-12-30T16:38:42.631Z,6.90
2017-12-30T16:41:08.814Z,11.50
2017-12-30T16:43:34.623Z,6.43
2017-12-30T16:46:00.420Z,9.77
2017-12-30T16:48:26.616Z,9.37
2017-12-30T16:50:52.419Z,8.15
2017-12-30T16:53:18.262Z,7.87
2017-12-30T16:55:44.068Z,6.00
2017-12-30T16:58:10.347Z,5.57
2017-12-30T17:00:36.205Z,5.05
2017-12-30T17:03:02.008Z,5.20
2017-12-30T17:05:27.831Z,5.67
2017-12-30T17:07:53.669Z,4.07
2017-12-30T17:10:19.455Z,4.43
2017-12-30T17:12:45.271Z,3.00
2017-12-30T17:15:11.056Z,3.13
2017-12-30T17:17:36.758Z,4.00
2017-12-30T17:20:02.953Z,2.50
2017-12-30T17:22:28.644Z,2.30
2017-12-30T17:24:54.390Z,2.00
2017-12-30T17:27:20.336Z,2.57
2017-12-30T17:29:46.029Z,2.47
2017-12-30T17:32:11.710Z,2.90
2017-12-30T17:34:37.422Z,3.50
2017-12-30T17:37:03.114Z,2.67
2017-12-30T17:39:28.798Z,3.20
2017-12-30T17:41:54.883Z,3.90
2017-12-30T17:44:20.605Z,2.73
2017-12-30T17:46:46.458Z,3.17
2017-12-30T17:49:12.158Z,2.80
2017-12-30T17:51:38.272Z,2.60
2017-12-30T17:54:03.976Z,1.62
2017-12-30T17:56:29.666Z,2.53
2017-12-30T17:58:55.510Z,2.90
2017-12-30T18:01:21.265Z,3.20
2017-12-30T18:03:46.957Z,3.70
2017-12-30T18:06:13.070Z,2.30
2017-12-30T18:08:38.773Z,2.65
2017-12-30T18:11:04.974Z,4.43
2017-12-30T18:13:31.033Z,2.60
2017-12-30T18:15:56.726Z,3.05
2017-12-30T18:18:23.570Z,2.97
2017-12-30T18:20:49.720Z,3.40
2017-12-30T18:23:15.417Z,3.12
2017-12-30T18:25:41.140Z,2.10
2017-12-30T18:28:06.836Z,3.50
2017-12-30T18:30:32.549Z,3.63
2017-12-30T18:32:58.522Z,3.10
2017-12-30T18:35:24.290Z,3.80
2017-12-30T18:37:50.069Z,3.37
2017-12-30T18:40:15.833Z,2.83
2017-12-30T18:42:41.722Z,5.70
2017-12-30T18:45:07.426Z,6.50
2017-12-30T18:47:33.418Z,7.43
2017-12-30T18:49:59.094Z,3.63
2017-12-30T18:52:24.802Z,3.50
2017-12-30T18:54:50.504Z,5.47
2017-12-30T18:57:16.509Z,3.53
2017-12-30T18:59:42.321Z,5.23
2017-12-30T19:02:08.017Z,2.50
2017-12-30T19:04:33.694Z,3.40
2017-12-30T19:06:59.406Z,2.20
2017-12-30T19:09:25.135Z,2.57
2017-12-30T19:11:50.843Z,3.10
2017-12-30T19:14:16.554Z,3.00
2017-12-30T19:16:42.256Z,2.37
2017-12-30T19:19:08.104Z,2.93
2017-12-30T19:21:33.834Z,2.07
2017-12-30T19:23:59.698Z,3.90
2017-12-30T19:26:25.386Z,5.70
2017-12-30T19:28:51.062Z,2.47
2017-12-30T19:31:16.766Z,2.10
2017-12-30T19:33:42.442Z,2.27
2017-12-30T19:36:08.127Z,2.40
2017-12-30T19:38:34.097Z,2.60
2017-12-30T19:40:59.885Z,2.63
2017-12-30T19:43:25.701Z,1.50
2017-12-30T19:45:51.721Z,1.63
2017-12-30T19:48:17.405Z,1.70
2017-12-30T19:50:43.102Z,2.10
2017-12-30T19:53:09.608Z,1.57
2017-12-30T19:55:35.297Z,1.50
2017-12-30T19:58:01.191Z,2.20
2017-12-30T20:00:28.065Z,1.90
2017-12-30T20:02:53.957Z,1.90
2017-12-30T20:05:19.911Z,1.70
2017-12-30T20:07:45.704Z,2.13
2017-12-30T20:10:11.410Z,1.47
2017-12-30T20:12:37.460Z,2.27
2017-12-30T20:15:03.210Z,1.33
2017-12-30T20:17:29.286Z,1.87
2017-12-30T20:19:54.981Z,1.53
2017-12-30T20:22:20.861Z,1.27
2017-12-30T20:24:46.871Z,1.50
2017-12-30T20:27:12.747Z,1.90
2017-12-30T20:29:38.522Z,1.77
2017-12-30T20:32:05.286Z,21.43
2017-12-30T20:34:30.978Z,20.62
2017-12-30T20:36:56.665Z,17.93
2017-12-30T20:39:22.375Z,4.83
2017-12-30T20:41:49.024Z,21.40
2017-12-30T20:44:14.753Z,14.53
2017-12-30T20:46:40.441Z,8.63
2017-12-30T20:49:06.196Z,21.03
2017-12-30T20:51:31.934Z,13.53
2017-12-30T20:53:57.613Z,1.53
2017-12-30T20:56:23.419Z,0.80
2017-12-30T20:58:49.119Z,1.93
2017-12-30T21:01:14.798Z,1.93
2017-12-30T21:03:40.513Z,1.77
2017-12-30T21:06:06.188Z,1.53
2017-12-30T21:08:31.870Z,1.50
2017-12-30T21:10:57.913Z,1.73
2017-12-30T21:13:23.601Z,2.42
2017-12-30T21:15:49.297Z,0.80
2017-12-30T21:18:15.065Z,1.40
2017-12-30T21:20:40.744Z,1.70
2017-12-30T21:23:06.420Z,1.33
2017-12-30T21:25:32.132Z,1.20
2017-12-30T21:27:57.821Z,0.73
2017-12-30T21:30:23.511Z,1.57
2017-12-30T21:32:49.218Z,1.70
2017-12-30T21:35:14.910Z,1.20
2017-12-30T21:37:40.598Z,1.43
2017-12-30T21:40:06.313Z,1.13
2017-12-30T21:42:32.123Z,1.93
2017-12-30T21:44:57.800Z,1.10
2017-12-30T21:47:23.518Z,2.00
2017-12-30T21:49:49.320Z,1.87
2017-12-30T21:52:15.003Z,2.30
2017-12-30T21:54:40.708Z,1.53
2017-12-30T21:57:06.385Z,2.73
2017-12-30T21:59:32.061Z,1.60
2017-12-30T22:01:57.762Z,1.67
2017-12-30T22:04:23.455Z,1.70
2017-12-30T22:06:49.147Z,1.70
2017-12-30T22:09:14.853Z,1.60
2017-12-30T22:11:40.616Z,1.30
2017-12-30T22:14:06.298Z,0.90
2017-12-30T22:16:32.145Z,1.60
2017-12-30T22:18:57.879Z,2.13
2017-12-30T22:21:23.581Z,2.10
2017-12-30T22:23:49.261Z,2.03
2017-12-30T22:26:14.949Z,1.87
2017-12-30T22:28:40.643Z,1.90
2017-12-30T22:31:06.374Z,2.20
2017-12-30T22:33:32.065Z,1.90
2017-12-30T22:35:57.769Z,2.67
2017-12-30T22:38:23.473Z,2.37
2017-12-30T22:40:49.150Z,2.17
2017-12-30T22:43:14.864Z,2.53
2017-12-30T22:45:40.554Z,2.43
2017-12-30T22:48:06.238Z,2.00
2017-12-30T22:50:32.054Z,2.83
2017-12-30T22:52:57.736Z,1.13
2017-12-30T22:55:23.582Z,2.33
2017-12-30T22:57:49.292Z,2.40
2017-12-30T23:00:14.986Z,2.87
2017-12-30T23:02:40.669Z,2.87
2017-12-30T23:05:06.390Z,1.40
2017-12-30T23:07:32.486Z,1.60
2017-12-30T23:09:58.303Z,2.43
2017-12-30T23:12:23.984Z,2.70
2017-12-30T23:14:49.672Z,2.73
2017-12-30T23:17:15.382Z,1.67
2017-12-30T23:19:41.066Z,2.43
2017-12-30T23:22:06.753Z,2.17
2017-12-30T23:24:32.469Z,2.07
2017-12-30T23:26:58.145Z,2.30
2017-12-30T23:29:23.817Z,3.23
2017-12-30T23:31:49.509Z,3.13
2017-12-30T23:34:15.467Z,2.53
2017-12-30T23:36:41.172Z,2.33
2017-12-30T23:39:06.850Z,2.33
2017-12-30T23:41:32.544Z,1.60
2017-12-30T23:43:58.340Z,3.00
2017-12-30T23:46:24.018Z,2.03
2017-12-30T23:48:49.861Z,4.20
2017-12-30T23:51:15.541Z,2.50
2017-12-30T23:53:41.218Z,2.60
2017-12-30T23:56:06.913Z,3.20
2017-12-30T23:58:32.927Z,1.90
